createdAt,value
2022-09-09T00:02:13.288Z,43.86
2022-09-09T00:04:42.805Z,43.98
2022-09-09T00:07:51.730Z,43.88
2022-09-09T00:10:25.240Z,43.71
2022-09-09T00:13:30.243Z,43.71
2022-09-09T00:16:21.015Z,43.86
2022-09-09T00:19:19.536Z,43.67
2022-09-09T00:22:05.289Z,43.56
2022-09-09T00:24:55.714Z,43.97
2022-09-09T00:27:29.125Z,43.58
2022-09-09T00:30:23.505Z,43.78
2022-09-09T00:33:05.238Z,43.58
2022-09-09T00:35:39.319Z,43.76
2022-09-09T00:38:28.762Z,43.88
2022-09-09T00:41:15.002Z,43.88
2022-09-09T00:43:43.543Z,44.08
2022-09-09T00:46:51.235Z,43.85
2022-09-09T00:49:47.561Z,43.68
2022-09-09T00:52:46.829Z,43.82
2022-09-09T00:55:22.746Z,43.82
2022-09-09T00:57:53.697Z,43.75
2022-09-09T01:00:52.252Z,43.75
2022-09-09T01:03:38.222Z,43.60
2022-09-09T01:06:27.807Z,43.53
2022-09-09T01:09:28.817Z,43.58
2022-09-09T01:12:25.533Z,43.82
2022-09-09T01:15:31.433Z,43.86
2022-09-09T01:18:14.920Z,43.86
2022-09-09T01:21:07.435Z,43.63
2022-09-09T01:23:43.810Z,43.92
2022-09-09T01:26:40.403Z,44.01
2022-09-09T01:29:19.505Z,43.64
2022-09-09T01:31:57.859Z,43.95
2022-09-09T01:34:37.558Z,44.23
2022-09-09T01:37:10.168Z,43.98
2022-09-09T01:39:40.389Z,43.88
2022-09-09T01:42:17.057Z,44.05
2022-09-09T01:44:45.828Z,44.00
2022-09-09T01:47:15.762Z,44.16
2022-09-09T01:50:04.868Z,44.20
2022-09-09T01:52:41.620Z,44.12
2022-09-09T01:55:13.460Z,44.59
2022-09-09T01:58:05.282Z,44.72
2022-09-09T02:00:38.282Z,44.85
2022-09-09T02:03:30.497Z,45.48
2022-09-09T02:06:21.173Z,45.80
2022-09-09T02:08:57.214Z,45.71
2022-09-09T02:11:28.954Z,46.15
2022-09-09T02:14:17.557Z,46.78
2022-09-09T02:17:02.889Z,46.60
2022-09-09T02:19:57.149Z,46.58
2022-09-09T02:22:40.499Z,46.87
2022-09-09T02:25:12.994Z,47.17
2022-09-09T02:27:44.646Z,47.21
2022-09-09T02:30:13.522Z,47.31
2022-09-09T02:32:53.923Z,47.49
2022-09-09T02:35:27.579Z,47.19
2022-09-09T02:38:00.534Z,47.16
2022-09-09T02:40:28.792Z,47.16
2022-09-09T02:43:01.750Z,47.23
2022-09-09T02:45:50.595Z,47.00
2022-09-09T02:48:47.205Z,46.96
2022-09-09T02:51:44.391Z,47.09
2022-09-09T02:54:33.150Z,47.05
2022-09-09T02:57:12.355Z,47.19
2022-09-09T02:59:42.584Z,47.38
2022-09-09T03:02:12.426Z,47.55
2022-09-09T03:04:45.402Z,47.88
2022-09-09T03:07:14.487Z,47.72
2022-09-09T03:09:43.510Z,47.66
2022-09-09T03:12:12.539Z,47.76
2022-09-09T03:14:41.409Z,47.62
2022-09-09T03:17:10.226Z,47.73
2022-09-09T03:19:45.163Z,47.88
2022-09-09T03:22:14.329Z,48.09
2022-09-09T03:24:43.904Z,48.12
2022-09-09T03:27:11.670Z,48.10
2022-09-09T03:29:40.400Z,48.25
2022-09-09T03:32:13.782Z,48.56
2022-09-09T03:34:41.777Z,48.50
2022-09-09T03:37:12.857Z,48.60
2022-09-09T03:39:41.193Z,48.68
2022-09-09T03:42:13.462Z,48.75
2022-09-09T03:44:43.032Z,48.47
2022-09-09T03:47:11.041Z,48.68
2022-09-09T03:49:39.251Z,48.86
2022-09-09T03:52:09.121Z,48.63
2022-09-09T03:54:36.970Z,48.75
2022-09-09T03:57:05.825Z,48.73
2022-09-09T03:59:33.705Z,48.78
2022-09-09T04:02:02.089Z,48.76
2022-09-09T04:04:30.017Z,48.56
2022-09-09T04:06:58.200Z,48.54
2022-09-09T04:09:25.999Z,48.51
2022-09-09T04:11:54.244Z,48.34
2022-09-09T04:14:23.138Z,48.43
2022-09-09T04:16:50.946Z,48.42
2022-09-09T04:19:18.818Z,48.36
2022-09-09T04:21:52.663Z,48.49
2022-09-09T04:24:23.141Z,48.21
2022-09-09T04:26:51.618Z,48.13
2022-09-09T04:29:19.511Z,48.01
2022-09-09T04:31:47.287Z,47.87
2022-09-09T04:34:15.149Z,47.79
2022-09-09T04:36:42.909Z,48.01
2022-09-09T04:39:11.055Z,47.85
2022-09-09T04:41:40.107Z,47.73
2022-09-09T04:44:07.876Z,47.69
2022-09-09T04:46:35.775Z,47.74
2022-09-09T04:49:03.605Z,47.68
2022-09-09T04:51:34.637Z,47.51
2022-09-09T04:54:03.288Z,47.32
2022-09-09T04:56:32.102Z,47.30
2022-09-09T04:59:03.913Z,47.44
2022-09-09T05:01:39.345Z,47.26
2022-09-09T05:04:07.271Z,47.57
2022-09-09T05:06:37.265Z,47.75
2022-09-09T05:09:06.131Z,47.76
2022-09-09T05:11:37.047Z,48.03
2022-09-09T05:14:12.492Z,47.96
2022-09-09T05:16:40.479Z,47.89
2022-09-09T05:19:10.150Z,47.69
2022-09-09T05:21:55.907Z,47.70
2022-09-09T05:24:29.547Z,47.54
2022-09-09T05:27:00.842Z,47.49
2022-09-09T05:29:29.329Z,47.34
2022-09-09T05:31:58.241Z,47.52
2022-09-09T05:34:26.374Z,47.41
2022-09-09T05:36:54.775Z,47.22
2022-09-09T05:39:24.401Z,47.34
2022-09-09T05:41:52.855Z,47.36
2022-09-09T05:44:21.203Z,47.20
2022-09-09T05:46:48.990Z,47.11
2022-09-09T05:49:17.262Z,47.17
2022-09-09T05:51:46.055Z,47.08
2022-09-09T05:54:16.598Z,46.79
2022-09-09T05:56:51.816Z,47.01
2022-09-09T05:59:20.960Z,46.99
2022-09-09T06:01:48.827Z,46.92
2022-09-09T06:04:25.905Z,47.01
2022-09-09T06:06:54.386Z,46.92
2022-09-09T06:09:23.953Z,46.88
2022-09-09T06:11:51.799Z,46.63
2022-09-09T06:14:21.532Z,46.72
2022-09-09T06:16:50.594Z,46.73
2022-09-09T06:19:22.876Z,46.55
2022-09-09T06:21:51.295Z,46.49
2022-09-09T06:24:20.557Z,46.46
2022-09-09T06:26:48.381Z,46.67
2022-09-09T06:29:23.763Z,46.41
2022-09-09T06:31:52.894Z,46.63
2022-09-09T06:34:25.570Z,46.48
2022-09-09T06:36:59.403Z,46.51
2022-09-09T06:39:32.232Z,46.56
2022-09-09T06:42:00.264Z,46.93
2022-09-09T06:44:46.367Z,46.67
2022-09-09T06:47:20.984Z,46.81
2022-09-09T06:49:49.276Z,46.61
2022-09-09T06:52:19.266Z,46.58
2022-09-09T06:54:47.868Z,46.54
2022-09-09T07:00:07.386Z,46.43
2022-09-09T07:02:40.086Z,46.55
2022-09-09T07:05:09.460Z,46.37
2022-09-09T07:07:37.840Z,46.48
2022-09-09T07:10:06.936Z,46.46
2022-09-09T07:12:36.300Z,46.21
2022-09-09T07:15:04.964Z,46.53
2022-09-09T07:17:32.758Z,46.50
2022-09-09T07:20:02.990Z,46.41
2022-09-09T07:22:31.162Z,46.71
2022-09-09T07:24:59.012Z,46.64
2022-09-09T07:27:27.805Z,46.56
2022-09-09T07:29:55.654Z,46.41
2022-09-09T07:32:23.715Z,46.42
2022-09-09T07:34:51.632Z,46.44
2022-09-09T07:37:20.094Z,46.58
2022-09-09T07:39:49.252Z,46.59
2022-09-09T07:42:18.631Z,46.71
2022-09-09T07:44:46.614Z,46.56
2022-09-09T07:47:17.065Z,46.27
2022-09-09T07:49:50.782Z,46.48
2022-09-09T07:52:23.423Z,45.94
2022-09-09T07:54:55.425Z,45.36
2022-09-09T07:57:23.211Z,45.86
2022-09-09T07:59:53.238Z,45.09
2022-09-09T08:02:21.509Z,45.29
2022-09-09T08:04:49.301Z,45.03
2022-09-09T08:07:19.187Z,45.52
2022-09-09T08:09:52.563Z,45.00
2022-09-09T08:12:27.482Z,45.32
2022-09-09T08:14:55.748Z,44.99
2022-09-09T08:17:26.131Z,45.46
2022-09-09T08:19:55.205Z,45.19
2022-09-09T08:22:27.281Z,45.38
2022-09-09T08:24:56.180Z,44.82
2022-09-09T08:27:25.300Z,45.00
2022-09-09T08:29:54.395Z,44.76
2022-09-09T08:32:22.176Z,44.58
2022-09-09T08:34:54.551Z,44.65
2022-09-09T08:37:24.529Z,44.35
2022-09-09T08:39:54.292Z,44.46
2022-09-09T08:42:50.620Z,44.00
2022-09-09T08:45:35.924Z,44.36
2022-09-09T08:48:53.430Z,44.02
2022-09-09T08:51:21.772Z,44.26
2022-09-09T08:53:55.383Z,43.80
2022-09-09T08:56:28.230Z,44.31
2022-09-09T08:59:03.747Z,44.18
2022-09-09T09:01:52.004Z,44.20
2022-09-09T09:05:00.182Z,43.77
2022-09-09T09:07:59.390Z,43.90
2022-09-09T09:10:52.121Z,44.07
2022-09-09T09:13:32.463Z,43.33
2022-09-09T09:16:39.866Z,42.96
2022-09-09T09:19:16.642Z,42.92
2022-09-09T09:22:30.282Z,42.34
2022-09-09T09:25:09.330Z,41.65
2022-09-09T09:28:01.744Z,41.07
2022-09-09T09:30:42.780Z,41.00
2022-09-09T09:33:34.114Z,41.05
2022-09-09T09:36:03.869Z,39.45
2022-09-09T09:41:39.677Z,39.96
2022-09-09T09:44:29.573Z,40.08
2022-09-09T09:47:22.680Z,40.19
2022-09-09T09:50:03.356Z,39.77
2022-09-09T09:52:37.851Z,39.83
2022-09-09T09:55:15.537Z,38.28
2022-09-09T09:57:45.777Z,38.95
2022-09-09T10:00:24.187Z,38.50
2022-09-09T10:03:16.612Z,37.33
2022-09-09T10:05:48.022Z,37.41
2022-09-09T10:08:18.977Z,39.45
2022-09-09T10:11:15.115Z,39.93
2022-09-09T10:14:04.848Z,40.79
2022-09-09T10:17:23.857Z,40.79
2022-09-09T10:20:34.733Z,40.44
2022-09-09T10:23:45.253Z,41.41
2022-09-09T10:26:56.373Z,42.29
2022-09-09T10:29:30.279Z,41.79
2022-09-09T10:32:10.861Z,42.17
2022-09-09T10:35:09.751Z,42.46
2022-09-09T10:38:13.079Z,42.37
2022-09-09T10:41:21.387Z,42.31
2022-09-09T10:44:00.427Z,42.10
2022-09-09T10:47:11.431Z,41.39
2022-09-09T10:50:07.948Z,40.26
2022-09-09T10:52:53.202Z,40.02
2022-09-09T10:55:40.498Z,40.15
2022-09-09T10:58:52.416Z,40.09
2022-09-09T11:01:38.200Z,39.69
2022-09-09T11:04:41.938Z,40.20
2022-09-09T11:07:15.561Z,39.75
2022-09-09T11:09:54.129Z,39.85
2022-09-09T11:12:27.723Z,40.03
2022-09-09T11:15:22.250Z,40.69
2022-09-09T11:18:01.809Z,41.21
2022-09-09T11:20:29.725Z,41.84
2022-09-09T11:23:01.447Z,41.59
2022-09-09T11:25:41.646Z,42.06
2022-09-09T11:28:37.583Z,43.43
2022-09-09T11:31:09.101Z,42.75
2022-09-09T11:34:07.163Z,43.74
2022-09-09T11:37:18.395Z,44.14
2022-09-09T11:39:58.612Z,43.22
2022-09-09T11:42:26.966Z,43.59
2022-09-09T11:44:56.102Z,43.38
2022-09-09T11:47:30.638Z,43.60
2022-09-09T11:50:16.643Z,44.29
2022-09-09T11:52:50.493Z,44.02
2022-09-09T11:55:37.863Z,43.34
2022-09-09T11:58:12.647Z,42.54
2022-09-09T12:00:45.462Z,42.24
2022-09-09T12:03:43.235Z,41.59
2022-09-09T12:07:04.923Z,41.62
2022-09-09T12:10:01.894Z,40.01
2022-09-09T12:12:32.762Z,39.62
2022-09-09T12:15:09.456Z,39.37
2022-09-09T12:17:47.628Z,39.44
2022-09-09T12:20:50.435Z,38.84
2022-09-09T12:23:27.885Z,38.96
2022-09-09T12:26:33.864Z,38.97
2022-09-09T12:29:16.224Z,37.89
2022-09-09T12:32:07.154Z,36.61
2022-09-09T12:34:54.792Z,36.77
2022-09-09T12:37:41.081Z,36.83
2022-09-09T12:40:29.719Z,36.79
2022-09-09T12:42:57.504Z,37.46
2022-09-09T12:45:29.633Z,37.71
2022-09-09T12:48:05.903Z,37.40
2022-09-09T12:50:39.157Z,36.94
2022-09-09T12:53:21.173Z,37.51
2022-09-09T12:55:58.176Z,38.26
2022-09-09T12:58:27.158Z,38.12
2022-09-09T13:00:58.411Z,38.45
2022-09-09T13:03:27.151Z,38.58
2022-09-09T13:06:18.572Z,38.35
2022-09-09T13:08:46.427Z,38.01
2022-09-09T13:11:37.285Z,37.32
2022-09-09T13:14:05.641Z,36.87
2022-09-09T13:16:42.094Z,36.68
2022-09-09T13:19:16.955Z,36.86
2022-09-09T13:21:44.970Z,36.24
2022-09-09T13:24:43.715Z,36.44
2022-09-09T13:27:43.348Z,36.95
2022-09-09T13:30:30.357Z,37.59
2022-09-09T13:33:23.572Z,37.77
2022-09-09T13:36:03.882Z,37.46
2022-09-09T13:38:37.657Z,36.96
2022-09-09T13:41:09.641Z,36.71
2022-09-09T13:43:56.428Z,36.25
2022-09-09T13:46:41.585Z,35.00
2022-09-09T13:49:12.287Z,34.40
2022-09-09T13:51:51.584Z,34.05
2022-09-09T13:54:21.969Z,34.30
2022-09-09T13:56:50.767Z,33.67
2022-09-09T13:59:20.992Z,33.97
2022-09-09T14:01:50.281Z,33.94
2022-09-09T14:04:19.068Z,33.87
2022-09-09T14:06:46.822Z,33.63
2022-09-09T14:09:17.379Z,33.17
2022-09-09T14:11:49.432Z,32.97
2022-09-09T14:14:17.240Z,32.68
2022-09-09T14:16:45.466Z,32.84
2022-09-09T14:19:13.265Z,32.57
2022-09-09T14:21:41.041Z,31.71
2022-09-09T14:24:08.782Z,31.73
2022-09-09T14:26:36.549Z,31.64
2022-09-09T14:29:04.271Z,32.00
2022-09-09T14:31:31.974Z,31.96
2022-09-09T14:34:00.058Z,31.40
2022-09-09T14:36:27.854Z,31.59
2022-09-09T14:38:55.650Z,31.34
2022-09-09T14:41:26.656Z,31.65
2022-09-09T14:43:54.997Z,31.71
2022-09-09T14:46:23.203Z,31.68
2022-09-09T14:48:51.189Z,31.79
2022-09-09T14:51:23.861Z,32.63
2022-09-09T14:53:57.673Z,32.87
2022-09-09T14:56:32.572Z,33.56
2022-09-09T14:59:03.589Z,34.23
2022-09-09T15:01:33.227Z,33.95
2022-09-09T15:04:04.561Z,33.71
2022-09-09T15:06:36.833Z,33.19
2022-09-09T15:09:04.777Z,32.32
2022-09-09T15:11:38.809Z,31.84
2022-09-09T15:14:09.074Z,31.53
2022-09-09T15:16:37.518Z,31.14
2022-09-09T15:19:05.738Z,30.71
2022-09-09T15:21:36.302Z,30.56
2022-09-09T15:24:05.609Z,30.87
2022-09-09T15:26:33.383Z,31.33
2022-09-09T15:29:01.600Z,31.25
2022-09-09T15:31:32.849Z,31.86
2022-09-09T15:34:04.820Z,31.83
2022-09-09T15:36:52.543Z,32.41
2022-09-09T15:39:20.641Z,32.52
2022-09-09T15:41:49.635Z,32.36
2022-09-09T15:44:17.823Z,32.36
2022-09-09T15:46:52.411Z,32.71
2022-09-09T15:49:28.230Z,32.83
2022-09-09T15:51:59.301Z,33.44
2022-09-09T15:54:27.582Z,33.51
2022-09-09T15:57:01.870Z,33.40
2022-09-09T15:59:32.211Z,33.29
2022-09-09T16:02:01.187Z,33.57
2022-09-09T16:04:30.569Z,33.55
2022-09-09T16:07:04.052Z,36.02
2022-09-09T16:09:33.549Z,39.04
2022-09-09T16:12:03.460Z,37.72
2022-09-09T16:14:35.147Z,41.42
2022-09-09T16:17:04.831Z,44.80
2022-09-09T16:19:33.686Z,45.68
2022-09-09T16:22:02.023Z,45.47
2022-09-09T16:24:29.958Z,46.09
2022-09-09T16:26:58.968Z,45.89
2022-09-09T16:29:28.345Z,47.43
2022-09-09T16:32:01.264Z,47.23
2022-09-09T16:34:31.488Z,47.15
2022-09-09T16:36:59.301Z,46.56
2022-09-09T16:39:27.098Z,47.18
2022-09-09T16:41:55.004Z,47.15
2022-09-09T16:44:22.929Z,47.37
2022-09-09T16:46:58.101Z,48.56
2022-09-09T16:49:29.368Z,49.04
2022-09-09T16:52:00.314Z,48.85
2022-09-09T16:54:29.622Z,49.01
2022-09-09T16:56:58.512Z,49.24
2022-09-09T16:59:27.463Z,48.82
2022-09-09T17:01:55.671Z,48.96
2022-09-09T17:04:28.889Z,49.29
2022-09-09T17:06:58.473Z,49.21
2022-09-09T17:09:30.208Z,48.54
2022-09-09T17:11:59.491Z,48.19
2022-09-09T17:14:27.764Z,48.85
2022-09-09T17:16:55.506Z,48.73
2022-09-09T17:19:23.232Z,48.63
2022-09-09T17:22:15.058Z,48.31
2022-09-09T17:24:39.576Z,48.76
2022-09-09T17:27:08.114Z,48.86
2022-09-09T17:29:36.974Z,48.60
2022-09-09T17:32:06.482Z,48.99
2022-09-09T17:34:35.550Z,49.22
2022-09-09T17:37:04.067Z,50.04
2022-09-09T17:39:31.919Z,49.83
2022-09-09T17:41:59.714Z,49.52
2022-09-09T17:44:27.585Z,49.82
2022-09-09T17:46:57.074Z,50.46
2022-09-09T17:49:24.789Z,49.78
2022-09-09T17:51:52.932Z,49.73
2022-09-09T17:54:21.638Z,49.86
2022-09-09T17:56:49.942Z,49.42
2022-09-09T17:59:18.976Z,49.31
2022-09-09T18:01:52.989Z,48.86
2022-09-09T18:04:20.999Z,48.63
2022-09-09T18:06:51.827Z,49.00
2022-09-09T18:09:24.861Z,48.91
2022-09-09T18:11:57.062Z,48.62
2022-09-09T18:14:31.154Z,48.89
2022-09-09T18:17:02.088Z,48.63
2022-09-09T18:19:32.881Z,48.66
2022-09-09T18:22:02.681Z,48.58
2022-09-09T18:24:31.253Z,48.65
2022-09-09T18:26:59.379Z,49.03
2022-09-09T18:29:27.199Z,48.93
2022-09-09T18:31:56.266Z,48.94
2022-09-09T18:34:25.720Z,48.83
2022-09-09T18:36:55.993Z,49.57
2022-09-09T18:39:29.391Z,49.50
2022-09-09T18:42:00.447Z,49.10
2022-09-09T18:44:33.476Z,49.48
2022-09-09T18:47:03.659Z,49.65
2022-09-09T18:49:33.351Z,49.75
2022-09-09T18:52:02.819Z,49.55
2022-09-09T18:54:33.341Z,49.44
2022-09-09T18:57:01.670Z,49.44
2022-09-09T18:59:30.706Z,49.37
2022-09-09T19:01:58.558Z,49.46
2022-09-09T19:04:27.518Z,49.17
2022-09-09T19:06:59.754Z,49.21
2022-09-09T19:09:31.831Z,49.31
2022-09-09T19:12:01.299Z,49.02
2022-09-09T19:14:29.605Z,49.08
2022-09-09T19:16:57.836Z,48.98
2022-09-09T19:19:30.616Z,48.93
2022-09-09T19:21:59.548Z,49.16
2022-09-09T19:24:33.372Z,48.97
2022-09-09T19:27:06.798Z,49.25
2022-09-09T19:29:37.598Z,49.06
2022-09-09T19:34:53.734Z,48.90
2022-09-09T19:37:22.521Z,49.00
2022-09-09T19:39:50.809Z,48.81
2022-09-09T19:42:18.969Z,48.77
2022-09-09T19:44:46.747Z,48.80
2022-09-09T19:47:15.149Z,48.66
2022-09-09T19:49:46.912Z,48.76
2022-09-09T19:52:17.248Z,48.70
2022-09-09T19:54:46.734Z,48.56
2022-09-09T19:57:14.780Z,48.50
2022-09-09T19:59:42.697Z,48.17
2022-09-09T20:02:15.728Z,48.46
2022-09-09T20:04:44.589Z,48.36
2022-09-09T20:07:12.896Z,48.33
2022-09-09T20:09:40.662Z,48.39
2022-09-09T20:12:10.161Z,48.35
2022-09-09T20:14:39.762Z,48.46
2022-09-09T20:17:08.636Z,48.34
2022-09-09T20:19:36.433Z,48.57
2022-09-09T20:22:04.490Z,48.36
2022-09-09T20:24:32.204Z,48.21
2022-09-09T20:26:59.944Z,48.49
2022-09-09T20:29:27.700Z,48.71
2022-09-09T20:31:55.417Z,48.55
2022-09-09T20:34:25.825Z,48.54
2022-09-09T20:36:54.707Z,48.47
2022-09-09T20:39:22.520Z,48.45
2022-09-09T20:41:51.383Z,48.48
2022-09-09T20:44:24.334Z,48.36
2022-09-09T20:46:57.972Z,48.26
2022-09-09T20:49:25.712Z,47.90
2022-09-09T20:51:54.226Z,47.85
2022-09-09T20:54:25.125Z,47.97
2022-09-09T20:56:55.400Z,48.34
2022-09-09T20:59:29.042Z,49.03
2022-09-09T21:01:58.083Z,48.94
2022-09-09T21:04:26.183Z,49.07
2022-09-09T21:06:54.428Z,49.48
2022-09-09T21:09:25.000Z,49.53
2022-09-09T21:11:53.741Z,49.82
2022-09-09T21:14:22.253Z,49.76
2022-09-09T21:16:50.311Z,49.53
2022-09-09T21:19:18.038Z,49.66
2022-09-09T21:21:47.929Z,49.75
2022-09-09T21:24:16.044Z,49.61
2022-09-09T21:26:43.834Z,49.58
2022-09-09T21:29:13.128Z,49.67
2022-09-09T21:31:41.130Z,49.70
2022-09-09T21:34:09.861Z,49.80
2022-09-09T21:36:37.649Z,49.85
2022-09-09T21:39:05.398Z,49.84
2022-09-09T21:41:33.135Z,49.81
2022-09-09T21:44:00.870Z,49.92
2022-09-09T21:46:29.403Z,49.80
2022-09-09T21:48:58.637Z,49.69
2022-09-09T21:51:26.408Z,49.75
2022-09-09T21:53:57.584Z,49.76
2022-09-09T21:56:26.891Z,49.69
2022-09-09T21:59:03.765Z,49.82
2022-09-09T22:01:35.309Z,49.87
2022-09-09T22:04:03.723Z,50.08
2022-09-09T22:06:31.515Z,49.84
2022-09-09T22:08:59.467Z,49.83
2022-09-09T22:11:28.158Z,49.73
2022-09-09T22:13:56.008Z,50.00
2022-09-09T22:16:24.222Z,49.80
2022-09-09T22:18:56.823Z,49.88
2022-09-09T22:21:27.204Z,49.69
2022-09-09T22:23:58.911Z,49.54
2022-09-09T22:26:29.889Z,49.62
2022-09-09T22:28:57.992Z,49.62
2022-09-09T22:31:27.170Z,49.59
2022-09-09T22:33:55.291Z,50.37
2022-09-09T22:36:23.935Z,52.21
2022-09-09T22:38:53.362Z,53.01
2022-09-09T22:41:21.122Z,54.18
2022-09-09T22:43:49.099Z,54.58
2022-09-09T22:46:18.799Z,54.96
2022-09-09T22:48:47.254Z,54.83
2022-09-09T22:51:16.281Z,54.75
2022-09-09T22:53:45.577Z,55.41
2022-09-09T22:56:18.367Z,55.68
2022-09-09T22:58:47.389Z,55.95
2022-09-09T23:01:19.405Z,55.52
2022-09-09T23:03:49.487Z,55.69
2022-09-09T23:06:22.508Z,56.07
2022-09-09T23:08:57.198Z,55.93
2022-09-09T23:11:31.812Z,56.27
2022-09-09T23:14:02.779Z,56.43
2022-09-09T23:16:40.557Z,56.49
2022-09-09T23:19:15.994Z,56.38
2022-09-09T23:21:46.274Z,56.67
2022-09-09T23:24:16.444Z,56.93
2022-09-09T23:26:45.688Z,57.16
2022-09-09T23:29:14.740Z,56.70
2022-09-09T23:31:45.256Z,57.05
2022-09-09T23:34:13.933Z,57.06
2022-09-09T23:36:41.861Z,56.91
2022-09-09T23:39:11.801Z,56.78
2022-09-09T23:41:40.374Z,56.40
2022-09-09T23:44:08.724Z,56.51
2022-09-09T23:46:36.670Z,56.55
2022-09-09T23:49:05.011Z,56.12
2022-09-09T23:51:34.906Z,55.80
2022-09-09T23:54:04.966Z,55.81
2022-09-09T23:56:40.514Z,56.20
2022-09-09T23:59:09.271Z,56.13
